createdAt,value
2023-01-06T00:02:19.835Z,13.80
2023-01-06T00:04:47.916Z,14.60
2023-01-06T00:07:15.957Z,14.90
2023-01-06T00:09:43.897Z,15.00
2023-01-06T00:12:11.828Z,14.60
2023-01-06T00:14:42.978Z,14.30
2023-01-06T00:17:11.436Z,14.30
2023-01-06T00:19:39.360Z,14.20
2023-01-06T00:22:07.364Z,13.80
2023-01-06T00:24:35.425Z,13.60
2023-01-06T00:27:03.352Z,13.40
2023-01-06T00:29:32.504Z,12.90
2023-01-06T00:32:02.699Z,12.90
2023-01-06T00:34:30.670Z,13.50
2023-01-06T00:36:58.582Z,13.90
2023-01-06T00:39:26.505Z,14.20
2023-01-06T00:42:06.784Z,14.50
2023-01-06T00:44:36.133Z,14.90
2023-01-06T00:47:07.679Z,15.10
2023-01-06T00:49:35.948Z,14.50
2023-01-06T00:52:04.009Z,14.40
2023-01-06T00:54:33.056Z,14.40
2023-01-06T00:57:00.990Z,14.60
2023-01-06T00:59:28.937Z,14.60
2023-01-06T01:01:58.512Z,14.80
2023-01-06T01:04:28.212Z,14.70
2023-01-06T01:06:56.380Z,14.80
2023-01-06T01:09:26.625Z,14.90
2023-01-06T01:12:11.808Z,15.20
2023-01-06T01:14:43.590Z,16.20
2023-01-06T01:17:13.008Z,15.50
2023-01-06T01:19:42.634Z,15.10
2023-01-06T01:22:11.096Z,14.70
2023-01-06T01:24:39.133Z,14.70
2023-01-06T01:27:07.490Z,14.50
2023-01-06T01:29:35.643Z,14.50
2023-01-06T01:32:03.907Z,14.60
2023-01-06T01:34:31.830Z,14.60
2023-01-06T01:37:01.209Z,14.50
2023-01-06T01:39:31.307Z,14.20
2023-01-06T01:42:00.050Z,14.50
2023-01-06T01:44:57.618Z,14.80
2023-01-06T01:47:31.484Z,15.70
2023-01-06T01:50:05.448Z,15.00
2023-01-06T01:52:35.584Z,15.40
2023-01-06T01:55:04.903Z,15.40
2023-01-06T01:57:38.182Z,15.20
2023-01-06T02:00:08.904Z,14.50
2023-01-06T02:02:43.898Z,14.00
2023-01-06T02:05:16.866Z,13.70
2023-01-06T02:07:46.949Z,13.70
2023-01-06T02:10:17.752Z,13.80
2023-01-06T02:12:49.116Z,13.90
2023-01-06T02:15:19.354Z,14.00
2023-01-06T02:18:06.527Z,14.20
2023-01-06T02:20:47.241Z,14.30
2023-01-06T02:23:43.189Z,14.60
2023-01-06T02:26:38.645Z,14.60
2023-01-06T02:29:34.961Z,14.40
2023-01-06T02:32:15.501Z,14.80
2023-01-06T02:34:50.631Z,14.70
2023-01-06T02:37:34.044Z,14.50
2023-01-06T02:40:16.698Z,14.50
2023-01-06T02:42:51.992Z,14.00
2023-01-06T02:45:24.243Z,13.90
2023-01-06T02:48:01.487Z,14.10
2023-01-06T02:50:41.121Z,14.00
2023-01-06T02:53:14.557Z,14.20
2023-01-06T02:55:47.894Z,14.30
2023-01-06T02:58:23.419Z,14.00
2023-01-06T03:00:57.438Z,14.00
2023-01-06T03:03:37.408Z,14.10
2023-01-06T03:06:10.041Z,14.20
2023-01-06T03:08:39.592Z,14.30
2023-01-06T03:11:07.636Z,14.50
2023-01-06T03:13:40.959Z,14.90
2023-01-06T03:16:09.604Z,14.70
2023-01-06T03:18:40.506Z,14.70
2023-01-06T03:21:12.640Z,15.10
2023-01-06T03:23:42.890Z,15.00
2023-01-06T03:26:11.224Z,15.50
2023-01-06T03:28:39.485Z,15.80
2023-01-06T03:31:16.289Z,15.10
2023-01-06T03:33:56.798Z,14.80
2023-01-06T03:36:31.242Z,15.00
2023-01-06T03:39:07.825Z,15.40
2023-01-06T03:41:59.600Z,15.10
2023-01-06T03:44:36.455Z,15.60
2023-01-06T03:47:14.352Z,15.40
2023-01-06T03:49:53.022Z,15.60
2023-01-06T03:52:26.942Z,15.60
2023-01-06T03:55:00.541Z,15.30
2023-01-06T03:57:33.776Z,15.30
2023-01-06T04:00:06.992Z,15.30
2023-01-06T04:02:42.509Z,15.10
2023-01-06T04:05:20.212Z,15.40
2023-01-06T04:07:50.001Z,15.00
2023-01-06T04:10:20.793Z,14.50
2023-01-06T04:12:50.941Z,14.30
2023-01-06T04:15:24.781Z,14.60
2023-01-06T04:17:54.932Z,15.30
2023-01-06T04:20:28.254Z,15.40
2023-01-06T04:23:09.678Z,15.60
2023-01-06T04:25:40.524Z,15.20
2023-01-06T04:28:15.442Z,15.40
2023-01-06T04:30:44.611Z,15.50
2023-01-06T04:33:12.958Z,15.80
2023-01-06T04:35:45.863Z,16.00
2023-01-06T04:38:17.666Z,16.70
2023-01-06T04:40:45.631Z,16.60
2023-01-06T04:43:16.130Z,16.70
2023-01-06T04:45:44.946Z,16.20
2023-01-06T04:48:13.356Z,16.20
2023-01-06T04:50:41.788Z,16.10
2023-01-06T04:53:12.897Z,16.50
2023-01-06T04:55:41.548Z,15.70
2023-01-06T04:58:09.920Z,15.40
2023-01-06T05:00:37.813Z,15.60
2023-01-06T05:03:05.754Z,15.70
2023-01-06T05:05:33.661Z,15.60
2023-01-06T05:08:01.577Z,15.80
2023-01-06T05:10:30.832Z,15.50
2023-01-06T05:12:58.901Z,15.50
2023-01-06T05:15:26.825Z,15.40
2023-01-06T05:17:54.716Z,15.20
2023-01-06T05:20:22.631Z,15.50
2023-01-06T05:22:50.550Z,15.40
2023-01-06T05:25:18.448Z,15.60
2023-01-06T05:27:47.701Z,15.40
2023-01-06T05:30:15.701Z,15.10
2023-01-06T05:32:43.602Z,15.50
2023-01-06T05:35:11.528Z,15.70
2023-01-06T05:37:39.445Z,15.70
2023-01-06T05:40:08.616Z,15.80
2023-01-06T05:42:36.523Z,16.40
2023-01-06T05:45:06.526Z,17.20
2023-01-06T05:47:34.429Z,17.70
2023-01-06T05:50:02.315Z,17.60
2023-01-06T05:52:30.253Z,17.70
2023-01-06T05:54:58.204Z,17.80
2023-01-06T05:57:26.130Z,17.90
2023-01-06T05:59:54.044Z,17.70
2023-01-06T06:02:23.382Z,18.00
2023-01-06T06:04:51.304Z,17.80
2023-01-06T06:07:19.240Z,17.50
2023-01-06T06:09:47.163Z,17.60
2023-01-06T06:12:15.110Z,17.80
2023-01-06T06:14:43.245Z,17.90
2023-01-06T06:17:11.165Z,18.20
2023-01-06T06:19:40.420Z,18.30
2023-01-06T06:22:10.565Z,18.60
2023-01-06T06:24:38.718Z,18.60
2023-01-06T06:27:06.687Z,18.60
2023-01-06T06:29:35.554Z,18.60
2023-01-06T06:32:03.495Z,18.40
2023-01-06T06:34:31.403Z,18.00
2023-01-06T06:37:00.665Z,18.30
2023-01-06T06:39:28.636Z,18.50
2023-01-06T06:41:56.557Z,17.90
2023-01-06T06:44:24.493Z,17.20
2023-01-06T06:46:52.419Z,17.30
2023-01-06T06:49:20.322Z,17.60
2023-01-06T06:51:48.535Z,18.00
2023-01-06T06:54:17.784Z,18.10
2023-01-06T06:56:45.909Z,18.20
2023-01-06T06:59:13.871Z,17.40
2023-01-06T07:01:41.982Z,16.70
2023-01-06T07:04:10.160Z,16.70
2023-01-06T07:06:38.246Z,17.00
2023-01-06T07:09:06.827Z,16.60
2023-01-06T07:11:36.085Z,15.90
2023-01-06T07:14:04.067Z,15.40
2023-01-06T07:16:31.974Z,15.60
2023-01-06T07:18:59.899Z,15.50
2023-01-06T07:21:27.867Z,15.70
2023-01-06T07:23:55.902Z,15.20
2023-01-06T07:26:23.851Z,14.90
2023-01-06T07:28:53.107Z,15.00
2023-01-06T07:31:21.060Z,14.40
2023-01-06T07:33:49.009Z,14.10
2023-01-06T07:36:16.947Z,14.00
2023-01-06T07:38:44.871Z,14.40
2023-01-06T07:41:12.783Z,14.10
2023-01-06T07:43:40.831Z,14.20
2023-01-06T07:46:10.282Z,14.00
2023-01-06T07:48:38.347Z,14.20
2023-01-06T07:51:07.013Z,14.50
2023-01-06T07:53:37.319Z,14.70
2023-01-06T07:56:05.552Z,14.60
2023-01-06T07:58:33.616Z,14.90
2023-01-06T08:01:06.922Z,15.10
2023-01-06T08:03:36.457Z,14.80
2023-01-06T08:06:08.328Z,14.60
2023-01-06T08:08:38.200Z,14.40
2023-01-06T08:11:08.380Z,14.20
2023-01-06T08:13:37.221Z,14.20
2023-01-06T08:16:06.257Z,14.20
2023-01-06T08:18:35.996Z,14.00
2023-01-06T08:21:04.918Z,14.00
2023-01-06T08:23:33.063Z,13.90
2023-01-06T08:26:04.433Z,13.70
2023-01-06T08:28:32.991Z,13.80
2023-01-06T08:31:01.163Z,14.20
2023-01-06T08:33:29.849Z,14.10
2023-01-06T08:36:01.211Z,14.60
2023-01-06T08:38:30.435Z,14.80
2023-01-06T08:41:00.602Z,14.80
2023-01-06T08:43:29.901Z,14.50
2023-01-06T08:46:00.811Z,14.20
2023-01-06T08:48:28.999Z,14.20
2023-01-06T08:50:58.084Z,14.80
2023-01-06T08:53:27.353Z,15.50
2023-01-06T08:55:55.275Z,15.50
2023-01-06T08:58:23.191Z,15.80
2023-01-06T09:00:51.436Z,15.60
2023-01-06T09:03:21.504Z,15.70
2023-01-06T09:05:54.297Z,15.90
2023-01-06T09:08:22.281Z,15.30
2023-01-06T09:10:51.928Z,15.00
2023-01-06T09:13:19.882Z,15.20
2023-01-06T09:15:49.019Z,14.90
2023-01-06T09:18:17.097Z,14.90
2023-01-06T09:20:45.032Z,15.50
2023-01-06T09:23:12.961Z,15.40
2023-01-06T09:25:41.890Z,16.10
2023-01-06T09:28:12.263Z,16.10
2023-01-06T09:30:41.615Z,16.40
2023-01-06T09:33:09.819Z,16.50
2023-01-06T09:35:37.746Z,16.40
2023-01-06T09:38:05.679Z,16.20
2023-01-06T09:40:57.653Z,16.40
2023-01-06T09:43:38.542Z,16.40
2023-01-06T09:46:09.605Z,16.60
2023-01-06T09:48:40.917Z,16.90
2023-01-06T09:51:18.044Z,17.30
2023-01-06T09:53:52.180Z,17.40
2023-01-06T09:56:23.408Z,17.20
2023-01-06T09:58:58.083Z,17.20
2023-01-06T10:01:31.614Z,17.50
2023-01-06T10:04:00.446Z,17.70
2023-01-06T10:06:34.293Z,18.10
2023-01-06T10:09:17.160Z,18.40
2023-01-06T10:11:58.413Z,17.80
2023-01-06T10:14:38.622Z,18.00
2023-01-06T10:17:26.042Z,17.90
2023-01-06T10:20:07.759Z,17.20
2023-01-06T10:22:46.370Z,17.30
2023-01-06T10:25:20.725Z,17.20
2023-01-06T10:27:52.172Z,16.70
2023-01-06T10:30:30.424Z,16.90
2023-01-06T10:33:02.500Z,17.20
2023-01-06T10:35:31.028Z,18.10
2023-01-06T10:38:00.932Z,18.00
2023-01-06T10:40:32.173Z,18.50
2023-01-06T10:43:03.623Z,18.50
2023-01-06T10:45:37.870Z,18.30
2023-01-06T10:48:08.579Z,18.10
2023-01-06T10:50:36.655Z,18.00
2023-01-06T10:53:05.450Z,18.40
2023-01-06T10:55:39.163Z,18.70
2023-01-06T10:58:25.256Z,18.30
2023-01-06T11:01:00.080Z,19.00
2023-01-06T11:03:33.754Z,18.10
2023-01-06T11:06:18.142Z,17.70
2023-01-06T11:08:46.201Z,17.90
2023-01-06T11:11:27.862Z,18.00
2023-01-06T11:13:58.731Z,18.10
2023-01-06T11:16:30.631Z,18.40
2023-01-06T11:19:01.264Z,18.30
2023-01-06T11:21:39.855Z,17.90
2023-01-06T11:24:18.702Z,18.10
2023-01-06T11:26:51.213Z,18.60
2023-01-06T11:29:24.582Z,18.90
2023-01-06T11:31:54.211Z,18.80
2023-01-06T11:34:24.695Z,18.80
2023-01-06T11:36:53.482Z,19.40
2023-01-06T11:39:27.797Z,19.20
2023-01-06T11:41:57.600Z,19.30
2023-01-06T11:44:32.388Z,18.60
2023-01-06T11:47:06.330Z,18.20
2023-01-06T11:49:38.084Z,18.30
2023-01-06T11:52:09.146Z,18.10
2023-01-06T11:54:39.340Z,18.50
2023-01-06T11:57:24.248Z,18.20
2023-01-06T12:00:20.285Z,18.40
2023-01-06T12:02:53.954Z,18.40
2023-01-06T12:05:31.186Z,18.80
2023-01-06T12:07:59.545Z,18.70
2023-01-06T12:10:33.674Z,18.60
2023-01-06T12:13:01.674Z,18.50
2023-01-06T12:15:32.459Z,18.10
2023-01-06T12:18:05.586Z,18.60
2023-01-06T12:20:36.162Z,18.70
2023-01-06T12:23:08.863Z,18.20
2023-01-06T12:25:41.697Z,17.80
2023-01-06T12:28:17.862Z,17.80
2023-01-06T12:30:54.176Z,17.90
2023-01-06T12:33:28.731Z,18.10
2023-01-06T12:36:01.591Z,18.50
2023-01-06T12:38:42.060Z,18.70
2023-01-06T12:41:15.507Z,18.80
2023-01-06T12:43:53.948Z,18.60
2023-01-06T12:46:28.512Z,18.60
2023-01-06T12:49:04.245Z,19.20
2023-01-06T12:51:39.196Z,18.60
2023-01-06T12:54:13.951Z,18.60
2023-01-06T12:56:58.479Z,18.90
2023-01-06T12:59:34.411Z,18.90
2023-01-06T13:02:17.375Z,19.10
2023-01-06T13:05:03.579Z,18.70
2023-01-06T13:07:45.553Z,19.00
2023-01-06T13:10:25.424Z,19.30
2023-01-06T13:13:26.845Z,20.10
2023-01-06T13:15:58.033Z,20.50
2023-01-06T13:18:31.508Z,20.60
2023-01-06T13:21:06.478Z,20.10
2023-01-06T13:23:46.705Z,20.40
2023-01-06T13:26:56.364Z,20.40
2023-01-06T13:29:35.194Z,20.30
2023-01-06T13:32:21.421Z,21.10
2023-01-06T13:35:19.084Z,21.30
2023-01-06T13:38:03.618Z,21.40
2023-01-06T13:40:37.041Z,21.60
2023-01-06T13:43:07.871Z,21.80
2023-01-06T13:45:39.495Z,21.70
2023-01-06T13:48:09.699Z,21.90
2023-01-06T13:50:38.556Z,22.10
2023-01-06T13:53:11.890Z,22.10
2023-01-06T13:55:40.460Z,22.20
2023-01-06T13:58:37.367Z,22.30
2023-01-06T14:01:09.991Z,22.30
2023-01-06T14:03:39.148Z,22.30
2023-01-06T14:06:34.409Z,22.30
2023-01-06T14:09:03.804Z,22.30
2023-01-06T14:11:34.588Z,22.50
2023-01-06T14:14:04.643Z,22.50
2023-01-06T14:16:43.501Z,22.50
2023-01-06T14:19:17.466Z,22.40
2023-01-06T14:21:48.212Z,22.40
2023-01-06T14:24:23.733Z,22.30
2023-01-06T14:26:55.677Z,22.30
2023-01-06T14:29:46.501Z,22.30
2023-01-06T14:32:50.177Z,22.00
2023-01-06T14:35:22.278Z,21.50
2023-01-06T14:37:54.234Z,21.80
2023-01-06T14:40:26.527Z,21.70
2023-01-06T14:42:56.167Z,21.10
2023-01-06T14:45:27.305Z,21.30
2023-01-06T14:48:03.084Z,21.40
2023-01-06T14:50:46.187Z,21.40
2023-01-06T14:53:24.025Z,21.40
2023-01-06T14:55:53.989Z,21.30
2023-01-06T14:58:33.073Z,21.40
2023-01-06T15:01:03.031Z,21.60
2023-01-06T15:03:32.614Z,21.60
2023-01-06T15:06:18.384Z,21.70
2023-01-06T15:08:49.171Z,21.60
2023-01-06T15:11:25.582Z,21.60
2023-01-06T15:13:53.524Z,21.30
2023-01-06T15:16:32.319Z,21.40
2023-01-06T15:19:01.771Z,21.50
2023-01-06T15:21:30.179Z,21.50
2023-01-06T15:23:58.350Z,21.50
2023-01-06T15:26:29.815Z,21.50
2023-01-06T15:29:01.715Z,21.50
2023-01-06T15:31:35.483Z,21.40
2023-01-06T15:34:07.380Z,21.40
2023-01-06T15:36:36.361Z,21.50
2023-01-06T15:39:07.602Z,21.50
2023-01-06T15:41:38.691Z,21.10
2023-01-06T15:44:23.985Z,20.90
2023-01-06T15:46:54.738Z,20.50
2023-01-06T15:49:27.225Z,20.60
2023-01-06T15:51:58.623Z,20.90
2023-01-06T15:54:29.293Z,21.00
2023-01-06T15:57:11.508Z,21.00
2023-01-06T15:59:43.813Z,21.10
2023-01-06T16:02:19.200Z,21.30
2023-01-06T16:04:51.332Z,21.40
2023-01-06T16:07:34.997Z,21.60
2023-01-06T16:10:03.254Z,21.50
2023-01-06T16:12:32.627Z,21.60
2023-01-06T16:15:36.069Z,21.70
2023-01-06T16:18:04.002Z,21.70
2023-01-06T16:20:36.529Z,21.80
2023-01-06T16:23:05.031Z,21.50
2023-01-06T16:25:35.139Z,21.30
2023-01-06T16:28:05.976Z,21.40
2023-01-06T16:30:36.295Z,21.30
2023-01-06T16:33:05.353Z,21.50
2023-01-06T16:35:35.224Z,21.60
2023-01-06T16:38:03.477Z,21.60
2023-01-06T16:40:32.656Z,21.50
2023-01-06T16:43:01.830Z,21.40
2023-01-06T16:45:36.038Z,21.60
2023-01-06T16:48:03.978Z,21.70
2023-01-06T16:50:39.201Z,21.40
2023-01-06T16:53:14.857Z,21.70
2023-01-06T16:55:43.575Z,21.60
2023-01-06T16:58:17.265Z,21.70
2023-01-06T17:00:51.565Z,21.50
2023-01-06T17:03:21.368Z,21.60
2023-01-06T17:05:49.542Z,21.40
2023-01-06T17:08:28.605Z,21.20
2023-01-06T17:10:57.158Z,20.90
2023-01-06T17:13:38.888Z,20.60
2023-01-06T17:16:16.407Z,20.70
2023-01-06T17:19:16.484Z,20.70
2023-01-06T17:21:44.398Z,20.80
2023-01-06T17:24:15.705Z,20.40
2023-01-06T17:26:50.204Z,20.80
2023-01-06T17:29:23.309Z,21.00
2023-01-06T17:31:55.822Z,20.10
2023-01-06T17:34:25.917Z,20.10
2023-01-06T17:36:56.659Z,20.40
2023-01-06T17:39:26.884Z,20.60
2023-01-06T17:42:02.396Z,20.70
2023-01-06T17:44:36.589Z,20.80
2023-01-06T17:47:13.191Z,20.90
2023-01-06T17:49:42.374Z,20.90
2023-01-06T17:52:22.438Z,21.00
2023-01-06T17:55:13.376Z,20.70
2023-01-06T17:57:44.569Z,21.10
2023-01-06T18:00:21.232Z,21.10
2023-01-06T18:02:55.901Z,20.90
2023-01-06T18:06:01.561Z,20.70
2023-01-06T18:08:32.738Z,20.80
2023-01-06T18:11:27.002Z,21.00
2023-01-06T18:13:55.528Z,21.20
2023-01-06T18:16:32.050Z,21.30
2023-01-06T18:19:15.175Z,21.50
2023-01-06T18:21:45.802Z,21.50
2023-01-06T18:24:18.455Z,21.60
2023-01-06T18:26:51.587Z,21.70
2023-01-06T18:29:23.390Z,21.70
2023-01-06T18:31:53.096Z,21.80
2023-01-06T18:34:42.091Z,21.90
2023-01-06T18:37:10.051Z,21.80
2023-01-06T18:39:41.453Z,21.80
2023-01-06T18:42:22.882Z,21.80
2023-01-06T18:44:52.880Z,21.80
2023-01-06T18:47:23.681Z,21.70
2023-01-06T18:49:58.760Z,21.70
2023-01-06T18:52:37.736Z,21.80
2023-01-06T18:55:21.579Z,21.80
2023-01-06T18:57:56.932Z,21.80
2023-01-06T19:00:40.859Z,21.80
2023-01-06T19:03:32.113Z,21.90
2023-01-06T19:06:22.238Z,21.90
2023-01-06T19:08:51.618Z,21.90
2023-01-06T19:11:22.450Z,21.90
2023-01-06T19:13:54.047Z,22.00
2023-01-06T19:16:29.269Z,22.00
2023-01-06T19:19:13.638Z,22.00
2023-01-06T19:21:43.694Z,22.00
2023-01-06T19:24:38.491Z,22.00
2023-01-06T19:27:18.302Z,22.00
2023-01-06T19:29:46.517Z,22.00
2023-01-06T19:32:16.491Z,21.90
2023-01-06T19:34:45.988Z,21.90
2023-01-06T19:37:20.308Z,21.90
2023-01-06T19:39:50.894Z,21.90
2023-01-06T19:42:24.479Z,21.90
2023-01-06T19:44:55.469Z,21.90
2023-01-06T19:47:25.947Z,21.60
2023-01-06T19:50:02.057Z,20.90
2023-01-06T19:52:37.851Z,20.50
2023-01-06T19:55:30.143Z,19.50
2023-01-06T19:58:01.657Z,18.70
2023-01-06T20:00:41.346Z,17.80
2023-01-06T20:03:26.092Z,17.40
2023-01-06T20:05:55.284Z,17.20
2023-01-06T20:08:24.570Z,17.20
2023-01-06T20:10:52.597Z,17.10
2023-01-06T20:13:20.538Z,16.90
2023-01-06T20:15:53.013Z,16.60
2023-01-06T20:18:23.061Z,16.90
2023-01-06T20:20:52.476Z,16.80
2023-01-06T20:23:20.774Z,16.90
2023-01-06T20:25:50.177Z,16.80
2023-01-06T20:28:18.497Z,16.70
2023-01-06T20:30:46.986Z,16.40
2023-01-06T20:33:22.769Z,16.20
2023-01-06T20:35:51.262Z,16.00
2023-01-06T20:38:19.346Z,16.10
2023-01-06T20:40:48.298Z,16.20
2023-01-06T20:43:19.781Z,16.20
2023-01-06T20:45:50.847Z,16.30
2023-01-06T20:48:19.258Z,16.50
2023-01-06T20:50:47.464Z,16.50
2023-01-06T20:53:16.468Z,16.60
2023-01-06T20:55:46.455Z,16.50
2023-01-06T20:58:14.738Z,16.90
2023-01-06T21:00:44.066Z,17.10
2023-01-06T21:03:12.589Z,16.70
2023-01-06T21:05:40.543Z,16.70
2023-01-06T21:08:09.272Z,16.70
2023-01-06T21:10:38.642Z,16.60
2023-01-06T21:13:06.760Z,16.70
2023-01-06T21:15:34.699Z,16.70
2023-01-06T21:18:04.192Z,16.80
2023-01-06T21:20:32.156Z,16.80
2023-01-06T21:23:00.122Z,16.40
2023-01-06T21:25:28.261Z,15.80
2023-01-06T21:27:56.793Z,15.70
2023-01-06T21:30:25.791Z,16.00
2023-01-06T21:32:55.155Z,16.10
2023-01-06T21:35:26.648Z,16.10
2023-01-06T21:37:54.585Z,16.20
2023-01-06T21:40:22.499Z,16.20
2023-01-06T21:43:08.288Z,16.40
2023-01-06T21:45:36.399Z,16.50
2023-01-06T21:48:04.839Z,16.60
2023-01-06T21:50:37.299Z,16.60
2023-01-06T21:53:06.995Z,16.70
2023-01-06T21:55:35.265Z,16.80
2023-01-06T21:58:03.440Z,16.60
2023-01-06T22:00:32.868Z,16.60
2023-01-06T22:03:00.885Z,16.70
2023-01-06T22:05:31.222Z,17.00
2023-01-06T22:08:01.321Z,16.80
2023-01-06T22:10:31.387Z,16.90
2023-01-06T22:13:00.117Z,16.70
2023-01-06T22:15:29.682Z,16.60
2023-01-06T22:18:01.985Z,16.60
2023-01-06T22:20:32.106Z,16.70
2023-01-06T22:23:03.239Z,16.40
2023-01-06T22:25:31.622Z,16.50
2023-01-06T22:28:00.401Z,16.50
2023-01-06T22:30:30.491Z,16.50
2023-01-06T22:32:58.736Z,16.70
2023-01-06T22:35:26.790Z,16.60
2023-01-06T22:37:54.728Z,17.00
2023-01-06T22:40:24.024Z,16.90
2023-01-06T22:42:52.016Z,16.90
2023-01-06T22:45:20.034Z,17.00
2023-01-06T22:47:50.211Z,17.20
2023-01-06T22:50:18.327Z,17.20
2023-01-06T22:52:46.230Z,17.20
2023-01-06T22:55:14.134Z,17.40
2023-01-06T22:57:43.383Z,17.70
2023-01-06T23:00:16.174Z,17.50
2023-01-06T23:02:44.691Z,17.40
2023-01-06T23:05:12.800Z,17.40
2023-01-06T23:07:43.983Z,17.40
2023-01-06T23:10:14.134Z,17.70
2023-01-06T23:12:44.900Z,17.60
2023-01-06T23:15:13.344Z,17.50
2023-01-06T23:17:41.317Z,17.70
2023-01-06T23:20:10.246Z,18.10
2023-01-06T23:22:38.177Z,18.30
2023-01-06T23:25:07.044Z,18.30
2023-01-06T23:27:34.968Z,18.70
2023-01-06T23:30:04.600Z,18.70
2023-01-06T23:32:32.566Z,18.70
2023-01-06T23:35:01.742Z,18.90
2023-01-06T23:37:29.654Z,18.80
2023-01-06T23:39:57.573Z,18.20
2023-01-06T23:42:25.567Z,17.70
2023-01-06T23:44:54.519Z,17.90
2023-01-06T23:47:23.770Z,18.00
2023-01-06T23:49:51.720Z,17.90
2023-01-06T23:52:19.693Z,17.40
2023-01-06T23:54:47.599Z,17.50
2023-01-06T23:57:16.661Z,17.40
2023-01-06T23:59:45.236Z,17.50
